Time;durP1;ratioP1;P1;durP2;ratioP2;P2;SDS_P1;SDS_P2;PMS_P1;PMS_P2;Temp;Humidity;BMP_temperature;BMP_pressure;BME280_temperature;BME280_humidity;BME280_pressure;Samples;Min_cycle;Max_cycle;Signal;HPM_P1;HPM_P2
2022/05/10 00:01:45;;;;;;;3.45;2.03;;;15.00;84.60;;;;;;5090682;28;20076;-77
2022/05/10 00:04:12;;;;;;;5.60;2.20;;;15.00;87.50;;;;;;5074447;28;20399;-77
2022/05/10 00:06:44;;;;;;;5.28;2.28;;;15.00;85.20;;;;;;5090874;28;20090;-77
2022/05/10 00:09:11;;;;;;;4.45;2.38;;;15.00;87.00;;;;;;5091158;28;20544;-77
2022/05/10 00:11:38;;;;;;;4.35;2.10;;;15.00;87.60;;;;;;5090024;28;20089;-77
2022/05/10 00:14:04;;;;;;;4.03;2.15;;;15.00;88.70;;;;;;5073624;28;20051;-78
2022/05/10 00:16:40;;;;;;;6.65;2.42;;;14.90;91.90;;;;;;5134233;27;20484;-78
2022/05/10 00:19:06;;;;;;;7.30;2.55;;;14.90;93.80;;;;;;5111288;28;20057;-77
2022/05/10 00:21:32;;;;;;;6.57;2.50;;;14.80;93.40;;;;;;5104485;28;20052;-78
2022/05/10 00:23:58;;;;;;;5.28;2.45;;;14.80;94.20;;;;;;5091078;28;20497;-77
2022/05/10 00:26:23;;;;;;;5.60;2.30;;;14.80;95.30;;;;;;5089619;28;20043;-77
2022/05/10 00:28:49;;;;;;;5.57;2.35;;;14.80;95.30;;;;;;5125402;27;20051;-77
2022/05/10 00:31:17;;;;;;;5.97;2.67;;;14.80;95.40;;;;;;5100130;28;20047;-77
2022/05/10 00:33:44;;;;;;;10.13;3.45;;;14.80;96.60;;;;;;5111365;28;20048;-78
2022/05/10 00:36:11;;;;;;;7.63;3.05;;;14.80;96.50;;;;;;5110979;28;20055;-77
2022/05/10 00:38:39;;;;;;;4.30;2.50;;;14.70;97.00;;;;;;5093783;28;20479;-78
2022/05/10 00:41:12;;;;;;;7.78;2.97;;;14.70;97.20;;;;;;5108336;28;20047;-77
2022/05/10 00:43:42;;;;;;;5.45;2.50;;;14.60;97.10;;;;;;5111300;28;20097;-78
2022/05/10 00:46:30;;;;;;;6.32;2.85;;;14.60;97.50;;;;;;5093348;28;20091;-78
2022/05/10 00:49:04;;;;;;;7.57;3.45;;;14.60;98.10;;;;;;5111440;28;20054;-77
2022/05/10 00:51:44;;;;;;;7.32;3.10;;;14.60;97.10;;;;;;5110400;28;20052;-78
2022/05/10 00:54:29;;;;;;;7.75;3.42;;;14.70;97.00;;;;;;5110665;28;20062;-77
2022/05/10 00:57:01;;;;;;;7.60;3.28;;;14.70;97.20;;;;;;5092637;28;20048;-77
2022/05/10 00:59:40;;;;;;;7.10;3.72;;;14.70;96.20;;;;;;5092025;28;20039;-78
2022/05/10 01:02:25;;;;;;;7.00;3.38;;;14.70;95.90;;;;;;5073157;28;20109;-78
2022/05/10 01:04:55;;;;;;;7.35;3.75;;;14.70;96.30;;;;;;5124790;27;20059;-78
2022/05/10 01:07:34;;;;;;;7.28;3.38;;;14.70;95.80;;;;;;5136488;27;20063;-77
2022/05/10 01:10:08;;;;;;;7.30;3.92;;;14.70;96.10;;;;;;5110756;28;20048;-79
2022/05/10 01:12:34;;;;;;;11.00;4.15;;;14.80;95.50;;;;;;5100046;28;20466;-77
2022/05/10 01:15:24;;;;;;;9.55;4.05;;;14.80;95.70;;;;;;5123628;27;20079;-77
2022/05/10 01:17:54;;;;;;;7.43;3.72;;;14.70;96.30;;;;;;5090107;28;20052;-77
2022/05/10 01:20:28;;;;;;;8.63;3.80;;;14.80;95.80;;;;;;5123752;27;20055;-77
2022/05/10 01:23:48;;;;;;;8.88;3.60;;;14.80;96.30;;;;;;5103290;28;20449;-77
2022/05/10 01:26:41;;;;;;;8.90;3.22;;;14.70;98.90;;;;;;5053634;28;20055;-77
2022/05/10 01:29:12;;;;;;;12.20;3.33;;;14.70;98.50;;;;;;5089565;28;20485;-78
2022/05/10 01:33:29;;;;;;;7.50;3.35;;;14.60;98.20;;;;;;5102907;28;20084;-77
2022/05/10 01:34:39;;;;;;;6.68;3.50;;;14.50;98.90;;;;;;5110088;28;20564;-77
2022/05/10 01:37:11;;;;;;;;;;;14.40;99.40;;;;;;5110012;28;20437;-78
2022/05/10 01:39:43;;;;;;;10.52;4.03;;;14.40;99.90;;;;;;5093243;28;19920;-77
2022/05/10 01:42:23;;;;;;;8.40;3.65;;;14.30;99.80;;;;;;5107999;28;20077;-77
2022/05/10 01:45:19;;;;;;;11.73;4.00;;;14.40;99.90;;;;;;5107802;28;20047;-77
2022/05/10 01:47:55;;;;;;;9.00;4.13;;;14.40;99.90;;;;;;5089848;28;20529;-78
2022/05/10 01:50:33;;;;;;;8.80;4.00;;;14.40;99.90;;;;;;5089182;28;20066;-78
2022/05/10 01:53:12;;;;;;;12.48;4.88;;;14.40;99.90;;;;;;5088960;28;20059;-78
2022/05/10 01:55:50;;;;;;;11.52;4.82;;;14.40;99.90;;;;;;5088998;28;20466;-77
2022/05/10 01:58:22;;;;;;;10.82;4.82;;;14.50;99.90;;;;;;5106539;28;20083;-77
2022/05/10 02:00:55;;;;;;;12.95;5.13;;;14.50;99.90;;;;;;5092805;28;20044;-77
2022/05/10 02:03:53;;;;;;;12.48;4.70;;;14.50;99.80;;;;;;5088397;28;20059;-78
2022/05/10 02:06:44;;;;;;;9.52;4.60;;;14.60;99.90;;;;;;5109321;28;20047;-78
2022/05/10 02:09:25;;;;;;;11.13;4.82;;;14.60;99.90;;;;;;5133580;27;20103;-78
2022/05/10 02:11:59;;;;;;;8.68;4.30;;;14.60;99.90;;;;;;5122646;27;20050;-78
2022/05/10 02:14:42;;;;;;;9.80;4.88;;;14.60;99.90;;;;;;5088018;28;20048;-78
2022/05/10 02:17:24;;;;;;;12.98;5.10;;;14.60;99.90;;;;;;5072221;28;20066;-79
2022/05/10 02:20:05;;;;;;;10.48;4.70;;;14.60;99.80;;;;;;5123658;27;20083;-77
2022/05/10 02:22:39;;;;;;;11.20;5.13;;;14.60;99.50;;;;;;5102614;28;20064;-78
2022/05/10 02:25:12;;;;;;;13.93;5.47;;;14.50;99.40;;;;;;5093042;28;20052;-77
2022/05/10 02:27:44;;;;;;;11.25;4.55;;;14.50;99.30;;;;;;5133572;27;20051;-77
2022/05/10 02:30:13;;;;;;;12.00;5.15;;;14.50;99.50;;;;;;5091224;28;20545;-77
2022/05/10 02:35:31;;;;;;;11.20;5.22;;;14.40;99.90;;;;;;5096612;28;20928;-78
2022/05/10 02:37:57;;;;;;;12.07;5.47;;;14.40;99.90;;;;;;5122517;28;20505;-77
2022/05/10 02:40:23;;;;;;;9.20;5.00;;;14.40;99.90;;;;;;5088597;28;20135;-77
2022/05/10 02:42:49;;;;;;;11.40;5.50;;;14.30;99.90;;;;;;5122948;28;20554;-78
2022/05/10 02:45:18;;;;;;;11.82;5.90;;;14.30;99.90;;;;;;5121904;28;20047;-77
2022/05/10 02:47:45;;;;;;;14.55;6.43;;;14.30;99.90;;;;;;5142305;27;20054;-78
2022/05/10 02:50:25;;;;;;;13.30;6.10;;;14.30;99.90;;;;;;5108459;28;20055;-79
2022/05/10 02:52:52;;;;;;;12.85;6.22;;;14.30;99.90;;;;;;5106653;28;20493;-77
2022/05/10 02:55:23;;;;;;;14.82;5.90;;;14.30;99.90;;;;;;5107632;28;20492;-77
2022/05/10 02:57:52;;;;;;;13.82;6.22;;;14.30;99.90;;;;;;5109347;28;20055;-77
2022/05/10 03:00:21;;;;;;;16.80;6.38;;;14.30;99.90;;;;;;5107760;28;20057;-77
2022/05/10 03:02:50;;;;;;;13.00;7.05;;;14.30;99.90;;;;;;5108873;28;20051;-79
2022/05/10 03:05:16;;;;;;;16.05;6.82;;;14.30;99.90;;;;;;5108178;28;20054;-78
2022/05/10 03:07:42;;;;;;;17.00;6.18;;;14.30;99.90;;;;;;5101644;28;20122;-78
2022/05/10 03:10:08;;;;;;;;;;;14.30;99.90;;;;;;5122519;28;20052;-78
2022/05/10 03:12:33;;;;;;;13.02;6.45;;;14.30;99.90;;;;;;5087622;28;19923;-77
2022/05/10 03:14:59;;;;;;;13.88;7.03;;;14.30;99.90;;;;;;5073451;28;20117;-77
2022/05/10 03:17:26;;;;;;;13.48;7.05;;;14.30;99.90;;;;;;5092176;28;20047;-77
2022/05/10 03:19:52;;;;;;;15.50;7.68;;;14.30;99.90;;;;;;5092535;28;20048;-77
2022/05/10 03:22:17;;;;;;;;;;;14.30;99.90;;;;;;5098601;28;20383;-77
2022/05/10 03:24:43;;;;;;;14.50;8.05;;;14.30;99.90;;;;;;5091955;28;19933;-78
2022/05/10 03:27:11;;;;;;;16.42;8.25;;;14.30;99.90;;;;;;5092026;28;20086;-78
2022/05/10 03:29:39;;;;;;;19.20;7.47;;;14.30;99.90;;;;;;5074476;28;20855;-77
2022/05/10 03:32:06;;;;;;;16.20;9.00;;;14.30;99.90;;;;;;5091832;28;20139;-77
2022/05/10 03:37:16;;;;;;;15.57;8.10;;;14.40;99.90;;;;;;5111195;28;20094;-77
2022/05/10 03:39:42;;;;;;;15.38;7.70;;;14.40;99.90;;;;;;5111657;28;20135;-77
2022/05/10 03:42:09;;;;;;;16.67;8.40;;;14.40;99.90;;;;;;5094686;28;20052;-78
2022/05/10 03:44:35;;;;;;;17.90;8.38;;;14.40;99.90;;;;;;5094369;28;20053;-77
2022/05/10 03:47:01;;;;;;;15.90;8.95;;;14.40;99.90;;;;;;5112297;28;20122;-77
2022/05/10 03:49:27;;;;;;;18.42;8.75;;;14.40;99.90;;;;;;5095054;28;20459;-78
2022/05/10 03:51:56;;;;;;;;;;;14.40;99.90;;;;;;5106625;28;20062;-77
2022/05/10 03:54:22;;;;;;;16.13;8.23;;;14.40;99.90;;;;;;5091018;28;19932;-78
2022/05/10 03:56:48;;;;;;;13.95;8.27;;;14.40;99.90;;;;;;5092279;28;20174;-78
2022/05/10 03:59:14;;;;;;;21.73;9.60;;;14.40;99.90;;;;;;5125808;27;20146;-80
2022/05/10 04:01:40;;;;;;;18.65;8.48;;;14.40;99.90;;;;;;5138972;27;20494;-77
2022/05/10 04:04:05;;;;;;;16.00;8.23;;;14.40;99.90;;;;;;5112163;28;20101;-77
2022/05/10 04:06:31;;;;;;;15.68;8.25;;;14.40;99.90;;;;;;5094027;28;20123;-78
2022/05/10 04:08:57;;;;;;;16.95;8.02;;;14.40;99.90;;;;;;5095008;28;20048;-77
2022/05/10 04:11:23;;;;;;;14.48;7.95;;;14.40;99.90;;;;;;5090967;28;20052;-77
2022/05/10 04:13:49;;;;;;;16.35;8.48;;;14.40;99.90;;;;;;5108271;28;20381;-77
2022/05/10 04:16:14;;;;;;;16.05;7.97;;;14.40;99.90;;;;;;5074178;28;20056;-79
2022/05/10 04:18:40;;;;;;;15.75;8.40;;;14.50;99.90;;;;;;5125194;27;20547;-78
2022/05/10 04:21:06;;;;;;;15.82;8.40;;;14.40;99.90;;;;;;5074322;28;20078;-77
2022/05/10 04:23:32;;;;;;;16.60;7.80;;;14.50;99.90;;;;;;5108205;28;20081;-77
2022/05/10 04:26:10;;;;;;;17.90;8.35;;;14.60;99.90;;;;;;5110375;28;20055;-77
2022/05/10 04:28:36;;;;;;;15.23;8.10;;;14.60;99.90;;;;;;5093980;28;20491;-77
2022/05/10 04:31:03;;;;;;;16.45;8.25;;;14.60;99.90;;;;;;5112349;28;20090;-77
2022/05/10 04:33:29;;;;;;;16.23;7.80;;;14.70;99.90;;;;;;5090064;28;20100;-78
2022/05/10 04:35:54;;;;;;;16.35;8.43;;;14.80;99.90;;;;;;5074319;28;20087;-77
2022/05/10 04:38:20;;;;;;;17.55;8.70;;;14.80;99.90;;;;;;5089898;28;20051;-77
2022/05/10 04:43:31;;;;;;;24.33;9.00;;;14.90;99.90;;;;;;5090093;28;20064;-77
2022/05/10 04:45:57;;;;;;;16.40;8.38;;;15.00;99.90;;;;;;5124861;27;20143;-76
2022/05/10 04:48:23;;;;;;;19.55;8.20;;;15.00;99.90;;;;;;5073254;28;20560;-76
2022/05/10 04:50:48;;;;;;;16.42;8.35;;;15.00;99.90;;;;;;5097766;28;20130;-77
2022/05/10 04:53:15;;;;;;;17.52;7.97;;;15.10;99.90;;;;;;5093493;28;20514;-76
2022/05/10 04:55:40;;;;;;;;;;;15.20;99.90;;;;;;5110077;28;20067;-76
2022/05/10 04:58:06;;;;;;;16.08;7.53;;;15.20;99.90;;;;;;5111052;28;20573;-76
2022/05/10 05:00:32;;;;;;;16.17;8.27;;;15.20;99.90;;;;;;5093035;28;20047;-76
2022/05/10 05:02:58;;;;;;;18.75;8.52;;;15.30;99.90;;;;;;5091398;28;20618;-77
2022/05/10 05:05:23;;;;;;;17.85;9.20;;;15.30;99.90;;;;;;5093272;28;20075;-76
2022/05/10 05:07:49;;;;;;;16.60;8.05;;;15.30;99.90;;;;;;5110401;28;20104;-76
2022/05/10 05:10:15;;;;;;;20.77;8.30;;;15.30;99.90;;;;;;5081927;28;20048;-76
2022/05/10 05:12:41;;;;;;;19.20;7.63;;;15.30;99.90;;;;;;5072817;28;20540;-76
2022/05/10 05:15:10;;;;;;;15.43;8.13;;;15.40;99.90;;;;;;5124092;27;20048;-76
2022/05/10 05:17:36;;;;;;;16.25;7.78;;;15.40;99.90;;;;;;5089756;28;20040;-76
2022/05/10 05:20:02;;;;;;;14.40;7.68;;;15.50;99.90;;;;;;5073464;28;20047;-79
2022/05/10 05:22:28;;;;;;;;;;;15.50;99.90;;;;;;5123556;27;20143;-79
2022/05/10 05:24:54;;;;;;;15.88;7.72;;;15.60;99.90;;;;;;5090170;28;20375;-77
2022/05/10 05:27:20;;;;;;;17.67;8.57;;;15.70;99.90;;;;;;5089875;28;20215;-77
2022/05/10 05:29:47;;;;;;;15.80;8.27;;;15.70;99.90;;;;;;5089145;28;20060;-76
2022/05/10 05:32:14;;;;;;;17.10;8.20;;;15.80;99.90;;;;;;5141958;27;20085;-76
2022/05/10 05:34:40;;;;;;;20.55;7.93;;;15.80;99.90;;;;;;5110974;28;20054;-76
2022/05/10 05:39:50;;;;;;;20.55;7.93;;;15.90;99.90;;;;;;5096427;28;20056;-76
2022/05/10 05:42:17;;;;;;;12.85;7.13;;;15.90;99.90;;;;;;5122931;27;20056;-77
2022/05/10 05:44:43;;;;;;;16.33;8.05;;;16.00;99.90;;;;;;5105951;28;20141;-77
2022/05/10 05:47:09;;;;;;;17.35;8.52;;;16.00;99.90;;;;;;5124251;27;20555;-77
2022/05/10 05:49:34;;;;;;;18.55;7.72;;;16.10;99.90;;;;;;5081134;28;20071;-77
2022/05/10 05:52:02;;;;;;;18.23;8.38;;;16.10;99.90;;;;;;5074841;28;20039;-77
2022/05/10 05:54:28;;;;;;;20.95;8.35;;;16.20;99.90;;;;;;5109040;28;20108;-76
2022/05/10 05:57:05;;;;;;;19.00;8.20;;;16.20;99.90;;;;;;5091850;28;20472;-76
2022/05/10 05:59:31;;;;;;;15.00;8.43;;;16.20;99.90;;;;;;5108848;28;20065;-79
2022/05/10 06:01:57;;;;;;;;;;;16.30;99.90;;;;;;5110221;28;20047;-76
2022/05/10 06:04:23;;;;;;;17.25;8.20;;;16.30;99.90;;;;;;5075772;28;19973;-76
2022/05/10 06:06:49;;;;;;;14.75;7.78;;;16.40;99.90;;;;;;5102442;28;20058;-76
2022/05/10 06:09:15;;;;;;;19.52;8.13;;;16.40;99.90;;;;;;5102428;28;20538;-77
2022/05/10 06:11:41;;;;;;;16.80;8.40;;;16.50;99.90;;;;;;5091235;28;20051;-77
2022/05/10 06:14:07;;;;;;;15.30;8.43;;;16.50;99.90;;;;;;5109788;28;20055;-77
2022/05/10 06:16:33;;;;;;;19.02;8.43;;;16.60;99.90;;;;;;5109640;28;20112;-77
2022/05/10 06:18:59;;;;;;;16.65;8.43;;;16.70;99.90;;;;;;5109564;28;20480;-77
2022/05/10 06:21:24;;;;;;;22.35;8.63;;;16.70;99.90;;;;;;5109550;28;20073;-76
2022/05/10 06:23:50;;;;;;;18.25;8.70;;;16.80;99.90;;;;;;5108456;28;20116;-76
2022/05/10 06:26:16;;;;;;;18.60;8.93;;;16.80;99.90;;;;;;5108328;28;20058;-76
2022/05/10 06:28:42;;;;;;;;;;;16.90;99.90;;;;;;5094278;28;20082;-76
2022/05/10 06:31:09;;;;;;;16.63;8.25;;;16.90;99.90;;;;;;5091460;28;20432;-76
2022/05/10 06:33:36;;;;;;;18.23;8.60;;;17.00;99.90;;;;;;5108129;28;20126;-76
2022/05/10 06:36:02;;;;;;;21.10;9.45;;;17.10;99.90;;;;;;5109351;28;20056;-76
2022/05/10 06:38:28;;;;;;;18.55;8.45;;;17.20;99.90;;;;;;5091637;28;20051;-77
2022/05/10 06:40:55;;;;;;;19.67;8.85;;;17.30;99.90;;;;;;5108464;28;20135;-76
2022/05/10 06:43:21;;;;;;;16.83;8.10;;;17.40;99.90;;;;;;5092487;28;20063;-76
2022/05/10 06:45:47;;;;;;;;;;;17.40;99.90;;;;;;5108926;28;20072;-76
2022/05/10 06:48:14;;;;;;;17.88;8.57;;;17.50;99.90;;;;;;5110192;28;20324;-76
2022/05/10 06:50:41;;;;;;;15.45;8.20;;;17.70;99.90;;;;;;5095989;28;20047;-76
2022/05/10 06:53:07;;;;;;;17.85;8.80;;;17.80;99.90;;;;;;5108414;28;20127;-76
2022/05/10 06:55:35;;;;;;;15.27;7.47;;;17.90;99.90;;;;;;5094864;28;20075;-77
2022/05/10 06:58:01;;;;;;;17.38;8.43;;;18.00;99.90;;;;;;5113240;28;20059;-77
2022/05/10 07:00:27;;;;;;;18.17;8.73;;;18.00;99.90;;;;;;5112689;28;20493;-77
2022/05/10 07:02:53;;;;;;;19.92;8.00;;;18.10;99.90;;;;;;5129917;27;20092;-77
2022/05/10 07:05:19;;;;;;;13.70;7.32;;;18.20;99.90;;;;;;5112627;28;20494;-78
2022/05/10 07:07:46;;;;;;;14.88;7.85;;;18.20;99.90;;;;;;5112436;28;20412;-76
2022/05/10 07:10:13;;;;;;;15.57;7.30;;;18.20;99.90;;;;;;5129473;27;20138;-76
2022/05/10 07:12:41;;;;;;;15.90;8.00;;;18.20;99.80;;;;;;5112496;28;20043;-77
2022/05/10 07:15:09;;;;;;;15.70;7.07;;;18.20;99.80;;;;;;5112264;28;20051;-76
2022/05/10 07:17:35;;;;;;;13.70;7.22;;;18.20;99.60;;;;;;5105106;28;20500;-78
2022/05/10 07:20:03;;;;;;;13.00;6.93;;;18.20;99.40;;;;;;5092954;28;20048;-77
2022/05/10 07:22:28;;;;;;;16.50;7.32;;;18.20;99.30;;;;;;5091948;28;20062;-77
2022/05/10 07:30:10;;;;;;;18.20;8.05;;;18.50;98.50;;;;;;5451268;22;20065;-79
2022/05/10 07:32:36;;;;;;;13.52;7.15;;;18.60;98.00;;;;;;5015434;28;20046;-78
2022/05/10 07:35:03;;;;;;;18.75;7.78;;;18.70;97.10;;;;;;5011981;28;20929;-78
2022/05/10 07:37:30;;;;;;;10.80;6.63;;;18.70;97.00;;;;;;5005691;28;20054;-79
2022/05/10 07:39:55;;;;;;;14.70;7.30;;;18.80;96.50;;;;;;5007569;28;20042;-79
2022/05/10 07:42:21;;;;;;;15.93;6.68;;;18.90;96.40;;;;;;5011244;28;20050;-79
2022/05/10 07:44:51;;;;;;;;;;;19.10;96.00;;;;;;5010540;28;20062;-80
2022/05/10 07:47:17;;;;;;;14.05;6.43;;;19.20;95.70;;;;;;5017051;28;19925;-79
2022/05/10 07:49:42;;;;;;;14.18;6.03;;;19.30;95.50;;;;;;5019181;28;20049;-78
2022/05/10 07:52:08;;;;;;;;;;;19.40;94.80;;;;;;5001840;28;20145;-79
2022/05/10 07:54:35;;;;;;;14.50;5.88;;;19.60;94.30;;;;;;5009690;28;19930;-79
2022/05/10 07:57:02;;;;;;;15.25;6.10;;;19.70;93.50;;;;;;5026976;28;20056;-78
2022/05/10 07:59:29;;;;;;;11.82;4.82;;;19.90;93.00;;;;;;5019190;28;20048;-78
2022/05/10 08:01:55;;;;;;;13.60;5.15;;;20.00;92.30;;;;;;5010847;28;20065;-80
2022/05/10 08:04:21;;;;;;;9.27;4.80;;;20.10;91.10;;;;;;5031692;28;20049;-80
2022/05/10 08:06:46;;;;;;;;;;;20.20;90.60;;;;;;5015065;28;20126;-81
2022/05/10 08:09:12;;;;;;;10.90;5.43;;;20.30;90.10;;;;;;4998524;28;19925;-79
2022/05/10 08:11:39;;;;;;;11.02;4.90;;;20.40;90.10;;;;;;5030777;28;20088;-79
2022/05/10 08:14:05;;;;;;;10.13;4.95;;;20.50;89.10;;;;;;5014816;28;20061;-80
2022/05/10 08:16:32;;;;;;;8.27;4.78;;;20.60;87.80;;;;;;5031142;28;20046;-80
2022/05/10 08:18:58;;;;;;;11.32;5.10;;;20.60;87.40;;;;;;5030989;28;20061;-80
2022/05/10 08:21:25;;;;;;;10.98;4.68;;;20.70;87.00;;;;;;5031322;28;20095;-80
2022/05/10 08:23:55;;;;;;;12.98;4.93;;;20.90;83.20;;;;;;5006289;28;20077;-80
2022/05/10 08:26:21;;;;;;;9.63;4.93;;;21.00;82.90;;;;;;4995291;28;20490;-79
2022/05/10 08:28:47;;;;;;;11.23;5.50;;;21.00;82.10;;;;;;5011092;28;20062;-79
2022/05/10 08:31:13;;;;;;;;;;;21.10;82.90;;;;;;4994833;28;20168;-80
2022/05/10 08:33:41;;;;;;;9.63;4.90;;;21.10;83.00;;;;;;5011254;28;19925;-79
2022/05/10 08:36:08;;;;;;;9.98;4.50;;;21.20;82.20;;;;;;5010954;28;20077;-79
2022/05/10 08:38:35;;;;;;;9.73;4.45;;;21.30;81.50;;;;;;5011076;28;20050;-79
2022/05/10 08:41:08;;;;;;;9.35;4.35;;;21.30;79.40;;;;;;5011729;28;20208;-78
2022/05/10 08:43:37;;;;;;;14.55;4.57;;;21.30;80.10;;;;;;5009288;28;20068;-79
2022/05/10 08:46:06;;;;;;;8.43;4.47;;;21.40;79.10;;;;;;5030047;28;20045;-79
2022/05/10 08:48:32;;;;;;;8.57;4.57;;;21.40;78.90;;;;;;5030839;28;20057;-77
2022/05/10 08:50:58;;;;;;;9.35;4.53;;;21.40;78.80;;;;;;5030246;28;20079;-78
2022/05/10 08:53:25;;;;;;;10.18;4.38;;;21.40;78.00;;;;;;5030005;28;20069;-79
2022/05/10 08:56:15;;;;;;;10.57;4.05;;;21.50;76.80;;;;;;4997259;28;20130;-79
2022/05/10 08:59:07;;;;;;;7.93;4.18;;;21.50;77.40;;;;;;5014204;28;20517;-78
2022/05/10 09:01:39;;;;;;;8.02;4.10;;;21.60;75.90;;;;;;5012471;28;20414;-78
2022/05/10 09:04:19;;;;;;;9.57;4.28;;;21.60;77.00;;;;;;5018979;28;20064;-79
2022/05/10 09:07:01;;;;;;;9.98;3.90;;;21.70;77.50;;;;;;5029818;28;20054;-78
2022/05/10 09:09:33;;;;;;;11.48;4.10;;;21.70;75.90;;;;;;5030115;28;20049;-78
2022/05/10 09:12:09;;;;;;;10.60;4.07;;;21.80;76.10;;;;;;5028090;28;20556;-78
2022/05/10 09:14:47;;;;;;;8.23;4.28;;;21.80;76.80;;;;;;5030054;28;20064;-78
2022/05/10 09:17:14;;;;;;;9.52;4.47;;;21.90;75.90;;;;;;5029868;28;20049;-79
2022/05/10 09:19:45;;;;;;;9.93;4.25;;;22.00;75.00;;;;;;5029951;28;20049;-78
2022/05/10 09:22:53;;;;;;;10.25;4.28;;;22.10;75.40;;;;;;5011419;28;20140;-78
2022/05/10 09:25:32;;;;;;;7.93;4.38;;;22.30;75.90;;;;;;5027739;28;20485;-78
2022/05/10 09:28:05;;;;;;;7.78;3.72;;;22.40;75.40;;;;;;5029436;28;20053;-80
2022/05/10 09:30:34;;;;;;;8.40;4.15;;;22.60;75.00;;;;;;5030853;28;20129;-78
2022/05/10 09:36:11;;;;;;;10.55;4.13;;;22.90;71.00;;;;;;5029705;28;20057;-78
2022/05/10 09:38:47;;;;;;;8.75;4.20;;;22.90;72.20;;;;;;5029845;28;20470;-79
2022/05/10 09:41:46;;;;;;;7.43;4.00;;;22.90;71.60;;;;;;5012372;28;20060;-78
2022/05/10 09:44:27;;;;;;;11.98;4.55;;;22.90;72.00;;;;;;5011331;28;20068;-78
2022/05/10 09:47:12;;;;;;;9.10;4.32;;;22.90;73.00;;;;;;5007202;28;20135;-78
2022/05/10 09:49:39;;;;;;;9.38;4.07;;;22.80;73.00;;;;;;5011132;28;20085;-78
2022/05/10 09:52:15;;;;;;;8.90;4.93;;;22.80;72.30;;;;;;5028305;28;20048;-79
2022/05/10 09:54:42;;;;;;;8.98;4.22;;;22.60;72.90;;;;;;5029878;28;20071;-78
2022/05/10 09:57:23;;;;;;;9.55;4.13;;;22.60;72.80;;;;;;5028724;28;20049;-79
2022/05/10 09:59:49;;;;;;;8.20;4.28;;;22.50;74.70;;;;;;5013192;28;20149;-79
2022/05/10 10:02:55;;;;;;;9.75;4.60;;;22.50;73.70;;;;;;5029340;28;20572;-78
2022/05/10 10:05:32;;;;;;;9.63;4.85;;;22.50;73.70;;;;;;4997991;28;20068;-78
2022/05/10 10:07:58;;;;;;;8.23;4.18;;;22.50;74.40;;;;;;5024081;28;20080;-80
2022/05/10 10:10:27;;;;;;;7.65;4.18;;;22.50;74.50;;;;;;5006356;28;20520;-78
2022/05/10 10:12:53;;;;;;;6.88;3.85;;;22.60;74.80;;;;;;5009991;28;20514;-79
2022/05/10 10:15:32;;;;;;;8.50;4.28;;;22.70;73.70;;;;;;5025785;28;20053;-79
2022/05/10 10:18:03;;;;;;;9.20;4.60;;;22.70;74.00;;;;;;5021274;28;20061;-79
2022/05/10 10:20:51;;;;;;;7.22;4.43;;;22.80;73.00;;;;;;5017664;28;20058;-79
2022/05/10 10:23:36;;;;;;;9.50;4.40;;;22.80;73.00;;;;;;5008502;28;20049;-77
2022/05/10 10:26:29;;;;;;;7.40;3.95;;;22.80;72.30;;;;;;5000599;28;20112;-77
2022/05/10 10:29:13;;;;;;;6.40;3.80;;;22.90;73.70;;;;;;5012386;28;20092;-79
2022/05/10 10:31:47;;;;;;;8.48;4.22;;;23.00;73.10;;;;;;5019091;28;20057;-80
2022/05/10 10:34:36;;;;;;;7.27;3.83;;;23.10;71.80;;;;;;5023665;28;20458;-79
2022/05/10 10:37:19;;;;;;;7.88;4.10;;;23.20;71.20;;;;;;5022614;28;20049;-78
2022/05/10 10:40:21;;;;;;;8.43;3.72;;;23.10;71.90;;;;;;5010823;28;20470;-79
2022/05/10 10:42:53;;;;;;;9.35;3.75;;;23.20;72.20;;;;;;5012036;28;20056;-79
2022/05/10 10:45:21;;;;;;;7.35;3.58;;;23.20;71.40;;;;;;5010337;28;20049;-79
2022/05/10 10:48:05;;;;;;;11.25;3.53;;;23.20;72.10;;;;;;5011129;28;20053;-80
2022/05/10 10:50:35;;;;;;;7.60;3.25;;;23.20;70.40;;;;;;5006223;28;20042;-79
2022/05/10 10:53:07;;;;;;;7.78;3.42;;;23.20;71.70;;;;;;5010545;28;20401;-79
2022/05/10 10:55:53;;;;;;;8.00;3.70;;;23.20;71.50;;;;;;5017876;28;20541;-79
2022/05/10 10:58:33;;;;;;;8.60;3.45;;;23.30;71.70;;;;;;5034776;28;20042;-78
2022/05/10 11:01:21;;;;;;;8.23;3.78;;;23.40;71.80;;;;;;5005038;28;20053;-79
2022/05/10 11:03:56;;;;;;;6.47;3.72;;;23.60;71.10;;;;;;5021339;28;20570;-80
2022/05/10 11:06:24;;;;;;;6.50;3.75;;;23.60;70.70;;;;;;4998512;28;20073;-79
2022/05/10 11:08:59;;;;;;;7.45;3.45;;;23.60;71.20;;;;;;5011535;28;20546;-79
2022/05/10 11:11:47;;;;;;;9.27;3.60;;;23.50;69.50;;;;;;5032461;28;20054;-79
2022/05/10 11:14:33;;;;;;;6.70;3.58;;;23.50;69.10;;;;;;5020768;28;20062;-79
2022/05/10 11:17:21;;;;;;;9.40;3.63;;;23.50;69.00;;;;;;5004647;28;20128;-79
2022/05/10 11:20:22;;;;;;;6.82;3.30;;;23.70;68.40;;;;;;5013530;28;20140;-79
2022/05/10 11:23:05;;;;;;;6.60;3.35;;;23.80;67.80;;;;;;4998896;28;20144;-79
2022/05/10 11:26:13;;;;;;;9.73;3.80;;;23.80;67.60;;;;;;5001277;28;20050;-79
2022/05/10 11:28:57;;;;;;;8.93;3.10;;;23.90;68.90;;;;;;5012254;28;20042;-80
2022/05/10 11:31:50;;;;;;;7.97;3.53;;;24.00;66.90;;;;;;4992113;28;20057;-80
2022/05/10 11:34:15;;;;;;;;;;;24.10;66.70;;;;;;5007628;28;20096;-80
2022/05/10 11:36:48;;;;;;;6.20;3.55;;;24.00;66.50;;;;;;5012124;28;19922;-79
2022/05/10 11:39:35;;;;;;;6.10;3.20;;;24.00;66.60;;;;;;5015788;28;20038;-80
2022/05/10 11:42:23;;;;;;;4.47;2.90;;;24.00;66.50;;;;;;5011948;28;20123;-79
2022/05/10 11:45:39;;;;;;;7.07;3.80;;;24.00;65.30;;;;;;5017320;28;20128;-79
2022/05/10 11:48:36;;;;;;;9.30;3.30;;;23.90;65.70;;;;;;4968674;28;20433;-78
2022/05/10 11:51:43;;;;;;;7.70;3.80;;;23.80;66.90;;;;;;4994035;28;20058;-80
2022/05/10 11:54:40;;;;;;;6.25;3.20;;;23.80;67.70;;;;;;4993885;28;20827;-81
2022/05/10 11:57:25;;;;;;;7.07;3.95;;;23.70;67.20;;;;;;5012714;28;20128;-79
2022/05/10 11:59:51;;;;;;;7.85;3.63;;;23.70;67.90;;;;;;5008099;28;20054;-79
2022/05/10 12:02:36;;;;;;;6.53;3.35;;;23.80;67.90;;;;;;5009224;28;20049;-79
2022/05/10 12:05:12;;;;;;;7.63;3.63;;;23.80;67.20;;;;;;4997060;28;20042;-80
2022/05/10 12:07:51;;;;;;;7.20;3.20;;;23.80;67.00;;;;;;5009616;28;20583;-79
2022/05/10 12:10:37;;;;;;;5.50;3.00;;;23.90;65.60;;;;;;5008390;28;20050;-79
2022/05/10 12:22:12;;;;;;;5.35;2.75;;;24.90;61.20;;;;;;5020493;28;20046;-79
2022/05/10 12:24:49;;;;;;;5.60;2.38;;;25.10;59.60;;;;;;5011579;28;20376;-79
2022/05/10 12:27:17;;;;;;;;;;;25.00;59.90;;;;;;5003061;28;20045;-79
2022/05/10 12:29:43;;;;;;;7.60;2.78;;;24.80;60.30;;;;;;5009062;28;19940;-80
2022/05/10 12:32:17;;;;;;;4.30;2.30;;;24.60;59.90;;;;;;5023041;28;20054;-80
2022/05/10 12:34:52;;;;;;;6.20;2.67;;;24.50;59.90;;;;;;5023711;28;20084;-77
2022/05/10 12:37:30;;;;;;;6.20;2.80;;;24.40;60.20;;;;;;5028659;28;20433;-79
2022/05/10 12:40:02;;;;;;;5.13;2.83;;;24.40;61.50;;;;;;5029731;28;20135;-78
2022/05/10 12:42:48;;;;;;;5.53;3.00;;;24.60;61.30;;;;;;5013329;28;20046;-78
2022/05/10 12:45:32;;;;;;;8.15;2.90;;;24.70;60.70;;;;;;5014160;28;20128;-78
2022/05/10 12:48:28;;;;;;;6.35;3.28;;;24.60;60.10;;;;;;5014441;28;20187;-78
2022/05/10 12:51:02;;;;;;;6.47;2.90;;;24.50;60.90;;;;;;5031094;28;20079;-78
2022/05/10 12:53:47;;;;;;;6.57;2.88;;;24.40;60.70;;;;;;5023956;28;20050;-77
2022/05/10 12:56:22;;;;;;;6.47;2.90;;;24.20;61.00;;;;;;5010318;28;20077;-77
2022/05/10 12:58:55;;;;;;;6.20;2.95;;;24.10;61.50;;;;;;4994777;28;20053;-78
2022/05/10 13:01:24;;;;;;;4.50;2.38;;;24.00;61.30;;;;;;5010881;28;20136;-79
2022/05/10 13:03:59;;;;;;;6.40;2.60;;;24.00;60.00;;;;;;5021492;28;20211;-78
2022/05/10 13:06:46;;;;;;;5.13;2.60;;;24.00;61.40;;;;;;5030037;28;20076;-78
2022/05/10 13:09:39;;;;;;;7.18;2.72;;;24.10;62.50;;;;;;5030598;28;20061;-78
2022/05/10 13:12:13;;;;;;;4.88;2.58;;;24.20;63.30;;;;;;5001590;28;20089;-79
2022/05/10 13:14:43;;;;;;;8.73;2.90;;;24.30;62.60;;;;;;5009650;28;20061;-78
2022/05/10 13:17:12;;;;;;;5.30;3.00;;;24.40;61.50;;;;;;5010770;28;20617;-79
2022/05/10 13:19:43;;;;;;;9.40;3.40;;;24.40;62.40;;;;;;5010472;28;20092;-78
2022/05/10 13:22:14;;;;;;;7.80;3.22;;;24.40;62.30;;;;;;5010484;28;20463;-79
2022/05/10 13:24:47;;;;;;;6.85;3.10;;;24.30;62.50;;;;;;5011361;28;20132;-78
2022/05/10 13:27:31;;;;;;;6.75;3.40;;;24.20;62.60;;;;;;5011129;28;20498;-79
2022/05/10 13:30:10;;;;;;;9.73;3.35;;;24.00;62.50;;;;;;5010033;28;20100;-79
2022/05/10 13:32:44;;;;;;;6.05;3.05;;;23.80;63.50;;;;;;5011233;28;20049;-79
2022/05/10 13:35:20;;;;;;;7.93;2.58;;;23.60;63.60;;;;;;5027005;28;20096;-79
2022/05/10 13:38:12;;;;;;;6.80;3.13;;;23.60;64.00;;;;;;5028457;28;20056;-80
2022/05/10 13:40:43;;;;;;;7.22;2.88;;;23.60;63.40;;;;;;4994951;28;20053;-81
2022/05/10 13:43:28;;;;;;;7.00;2.90;;;23.60;64.20;;;;;;5004357;28;20459;-81